createdAt,value
2023-04-09T00:00:32.198Z,36.50
2023-04-09T00:02:59.341Z,38.45
2023-04-09T00:05:26.296Z,41.25
2023-04-09T00:07:53.535Z,36.40
2023-04-09T00:10:22.001Z,40.88
2023-04-09T00:12:48.882Z,39.90
2023-04-09T00:15:29.902Z,39.33
2023-04-09T00:17:57.330Z,34.92
2023-04-09T00:20:25.722Z,30.45
2023-04-09T00:22:53.016Z,31.42
2023-04-09T00:25:20.424Z,34.00
2023-04-09T00:27:49.020Z,35.67
2023-04-09T00:30:17.150Z,33.67
2023-04-09T00:32:44.098Z,35.30
2023-04-09T00:35:11.140Z,33.83
2023-04-09T00:37:37.958Z,34.30
2023-04-09T00:40:07.454Z,33.70
2023-04-09T00:42:35.999Z,35.63
2023-04-09T00:45:04.084Z,37.25
2023-04-09T00:47:31.747Z,36.95
2023-04-09T00:49:59.292Z,40.63
2023-04-09T00:52:26.948Z,36.83
2023-04-09T00:54:54.923Z,37.90
2023-04-09T00:57:21.907Z,35.65
2023-04-09T00:59:48.787Z,36.22
2023-04-09T01:02:15.973Z,32.95
2023-04-09T01:04:44.016Z,36.75
2023-04-09T01:07:48.782Z,37.30
2023-04-09T01:10:18.666Z,39.17
2023-04-09T01:13:03.955Z,36.33
2023-04-09T01:15:37.078Z,35.85
2023-04-09T01:18:08.015Z,26.20
2023-04-09T01:20:52.199Z,35.58
2023-04-09T01:23:47.793Z,39.13
2023-04-09T01:26:40.845Z,36.42
2023-04-09T01:29:09.309Z,37.17
2023-04-09T01:31:39.016Z,40.15
2023-04-09T01:34:08.809Z,39.90
2023-04-09T01:36:36.870Z,41.47
2023-04-09T01:39:06.319Z,43.38
2023-04-09T01:41:36.157Z,42.58
2023-04-09T01:44:06.717Z,40.22
2023-04-09T01:46:36.566Z,41.47
2023-04-09T01:49:03.883Z,38.15
2023-04-09T01:51:32.556Z,37.00
2023-04-09T01:54:02.596Z,42.50
2023-04-09T01:56:51.206Z,43.45
2023-04-09T01:59:20.657Z,40.15
2023-04-09T02:01:53.520Z,43.20
2023-04-09T02:04:28.556Z,40.42
2023-04-09T02:07:44.332Z,38.80
2023-04-09T02:10:13.695Z,40.28
2023-04-09T02:12:48.738Z,38.95
2023-04-09T02:15:16.639Z,42.42
2023-04-09T02:17:43.788Z,38.05
2023-04-09T02:20:11.677Z,37.15
2023-04-09T02:22:40.530Z,42.50
2023-04-09T02:25:07.665Z,46.70
2023-04-09T02:27:34.485Z,41.60
2023-04-09T02:30:01.277Z,41.35
2023-04-09T02:32:28.064Z,39.53
2023-04-09T02:34:54.863Z,42.05
2023-04-09T02:37:21.972Z,38.05
2023-04-09T02:39:50.096Z,35.38
2023-04-09T02:42:16.880Z,39.95
2023-04-09T02:44:44.506Z,42.53
2023-04-09T02:47:13.572Z,47.95
2023-04-09T02:49:41.592Z,41.13
2023-04-09T02:52:10.885Z,45.13
2023-04-09T02:54:38.791Z,43.30
2023-04-09T02:57:05.862Z,42.85
2023-04-09T02:59:40.768Z,43.83
2023-04-09T03:02:08.450Z,40.90
2023-04-09T03:04:35.431Z,44.53
2023-04-09T03:07:02.359Z,42.00
2023-04-09T03:09:31.046Z,43.17
2023-04-09T03:11:58.034Z,38.72
2023-04-09T03:14:27.850Z,41.72
2023-04-09T03:16:55.574Z,42.00
2023-04-09T03:19:22.417Z,45.83
2023-04-09T03:21:49.460Z,42.20
2023-04-09T03:24:16.284Z,39.78
2023-04-09T03:26:43.165Z,38.00
2023-04-09T03:29:09.944Z,37.72
2023-04-09T03:31:38.499Z,42.55
2023-04-09T03:34:05.434Z,39.05
2023-04-09T03:36:32.888Z,42.78
2023-04-09T03:39:00.570Z,39.80
2023-04-09T03:41:28.386Z,41.08
2023-04-09T03:43:55.158Z,39.22
2023-04-09T03:46:22.797Z,37.83
2023-04-09T03:48:49.743Z,43.03
2023-04-09T03:51:17.586Z,39.67
2023-04-09T03:53:44.792Z,41.17
2023-04-09T03:56:13.143Z,41.25
2023-04-09T03:58:40.100Z,41.97
2023-04-09T04:01:07.573Z,43.53
2023-04-09T04:03:34.656Z,37.80
2023-04-09T04:06:03.428Z,40.97
2023-04-09T04:08:32.349Z,40.88
2023-04-09T04:11:05.464Z,37.35
2023-04-09T04:13:32.494Z,44.22
2023-04-09T04:16:02.063Z,42.22
2023-04-09T04:18:28.877Z,37.63
2023-04-09T04:20:56.104Z,38.97
2023-04-09T04:23:22.992Z,33.53
2023-04-09T04:25:49.860Z,34.35
2023-04-09T04:28:17.119Z,32.97
2023-04-09T04:30:44.118Z,32.88
2023-04-09T04:33:12.531Z,30.95
2023-04-09T04:35:39.354Z,30.02
2023-04-09T04:38:06.363Z,32.78
2023-04-09T04:40:33.206Z,35.85
2023-04-09T04:43:00.257Z,32.20
2023-04-09T04:45:27.065Z,31.02
2023-04-09T04:47:53.979Z,34.47
2023-04-09T04:50:20.870Z,32.15
2023-04-09T04:52:50.046Z,38.97
2023-04-09T04:55:16.952Z,29.10
2023-04-09T04:57:45.040Z,34.55
2023-04-09T05:00:12.740Z,32.38
2023-04-09T05:02:39.857Z,34.55
2023-04-09T05:05:07.008Z,34.55
2023-04-09T05:07:34.370Z,34.40
2023-04-09T05:10:01.251Z,31.30
2023-04-09T05:12:28.379Z,33.95
2023-04-09T05:14:55.149Z,34.78
2023-04-09T05:17:22.943Z,37.97
2023-04-09T05:19:53.723Z,39.22
2023-04-09T05:22:20.742Z,38.05
2023-04-09T05:24:48.015Z,38.03
2023-04-09T05:27:19.530Z,35.00
2023-04-09T05:29:46.318Z,37.20
2023-04-09T05:32:14.519Z,35.88
2023-04-09T05:34:41.929Z,37.42
2023-04-09T05:37:08.933Z,31.70
2023-04-09T05:39:35.880Z,34.97
2023-04-09T05:42:03.605Z,32.92
2023-04-09T05:44:30.689Z,30.50
2023-04-09T05:47:00.612Z,30.55
2023-04-09T05:49:27.461Z,30.42
2023-04-09T05:51:56.357Z,27.73
2023-04-09T05:54:24.157Z,25.45
2023-04-09T05:56:52.570Z,24.05
2023-04-09T05:59:19.454Z,21.15
2023-04-09T06:01:47.004Z,24.95
2023-04-09T06:04:15.054Z,22.92
2023-04-09T06:06:41.999Z,22.38
2023-04-09T06:09:08.893Z,24.50
2023-04-09T06:11:35.773Z,25.98
2023-04-09T06:14:02.565Z,26.10
2023-04-09T06:16:32.936Z,26.20
2023-04-09T06:19:01.027Z,23.88
2023-04-09T06:21:28.077Z,23.52
2023-04-09T06:23:56.111Z,22.30
2023-04-09T06:26:22.892Z,22.73
2023-04-09T06:28:49.722Z,19.13
2023-04-09T06:31:19.295Z,16.30
2023-04-09T06:33:46.842Z,17.05
2023-04-09T06:36:14.029Z,16.58
2023-04-09T06:38:41.382Z,15.20
2023-04-09T06:41:08.991Z,13.63
2023-04-09T06:43:37.989Z,13.60
2023-04-09T06:46:05.901Z,13.88
2023-04-09T06:48:33.004Z,13.55
2023-04-09T06:50:59.858Z,15.65
2023-04-09T06:53:26.821Z,14.93
2023-04-09T06:55:56.644Z,14.07
2023-04-09T06:58:24.051Z,12.95
2023-04-09T07:00:50.984Z,12.25
2023-04-09T07:03:19.122Z,12.00
2023-04-09T07:05:46.599Z,13.30
2023-04-09T07:08:17.175Z,11.98
2023-04-09T07:10:47.711Z,11.95
2023-04-09T07:13:14.571Z,11.98
2023-04-09T07:15:42.816Z,13.25
2023-04-09T07:18:13.024Z,14.13
2023-04-09T07:20:39.882Z,13.40
2023-04-09T07:23:06.693Z,11.65
2023-04-09T07:25:34.528Z,10.57
2023-04-09T07:28:01.799Z,13.10
2023-04-09T07:30:29.097Z,13.27
2023-04-09T07:32:56.279Z,10.95
2023-04-09T07:35:23.289Z,11.80
2023-04-09T07:37:52.250Z,10.05
2023-04-09T07:40:24.449Z,10.65
2023-04-09T07:42:51.284Z,10.02
2023-04-09T07:45:18.735Z,8.95
2023-04-09T07:47:45.600Z,9.27
2023-04-09T07:50:14.017Z,7.93
2023-04-09T07:52:41.058Z,8.73
2023-04-09T07:55:08.085Z,8.32
2023-04-09T07:57:35.062Z,9.27
2023-04-09T08:00:02.412Z,12.80
2023-04-09T08:02:33.544Z,11.45
2023-04-09T08:05:02.817Z,11.23
2023-04-09T08:07:30.069Z,12.55
2023-04-09T08:09:56.974Z,11.05
2023-04-09T08:12:23.839Z,11.90
2023-04-09T08:14:50.872Z,14.00
2023-04-09T08:17:19.117Z,12.43
2023-04-09T08:19:49.362Z,9.98
2023-04-09T08:22:16.265Z,9.35
2023-04-09T08:24:44.579Z,10.45
2023-04-09T08:27:11.868Z,10.07
2023-04-09T08:29:40.665Z,11.93
2023-04-09T08:32:08.247Z,11.65
2023-04-09T08:34:35.392Z,12.35
2023-04-09T08:37:02.872Z,9.65
2023-04-09T08:39:29.686Z,10.90
2023-04-09T08:42:02.598Z,11.80
2023-04-09T08:44:29.995Z,12.27
2023-04-09T08:46:58.436Z,10.25
2023-04-09T08:49:26.507Z,10.52
2023-04-09T08:51:53.371Z,11.68
2023-04-09T08:54:20.469Z,11.40
2023-04-09T08:56:52.905Z,11.73
2023-04-09T08:59:19.928Z,10.25
2023-04-09T09:01:51.567Z,8.82
2023-04-09T09:04:20.005Z,8.65
2023-04-09T09:06:48.578Z,8.70
2023-04-09T09:09:16.945Z,8.90
2023-04-09T09:11:51.176Z,9.45
2023-04-09T09:14:19.776Z,9.85
2023-04-09T09:17:06.031Z,10.90
2023-04-09T09:19:33.976Z,11.40
2023-04-09T09:22:09.040Z,11.02
2023-04-09T09:24:49.597Z,11.05
2023-04-09T09:27:37.224Z,10.90
2023-04-09T09:30:06.389Z,10.80
2023-04-09T09:32:33.901Z,9.63
2023-04-09T09:35:06.060Z,10.68
2023-04-09T09:37:36.390Z,12.00
2023-04-09T09:40:04.825Z,13.02
2023-04-09T09:42:32.188Z,12.73
2023-04-09T09:44:59.682Z,10.60
2023-04-09T09:47:28.341Z,11.80
2023-04-09T09:49:56.137Z,11.70
2023-04-09T09:52:29.285Z,12.13
2023-04-09T09:55:00.837Z,10.70
2023-04-09T09:57:31.521Z,11.35
2023-04-09T10:00:04.390Z,12.05
2023-04-09T10:02:42.029Z,14.90
2023-04-09T10:05:09.903Z,11.88
2023-04-09T10:07:38.726Z,10.35
2023-04-09T10:10:07.461Z,11.27
2023-04-09T10:12:34.840Z,11.98
2023-04-09T10:15:07.432Z,10.98
2023-04-09T10:17:36.928Z,12.40
2023-04-09T10:20:29.155Z,13.20
2023-04-09T10:22:58.194Z,14.57
2023-04-09T10:25:26.593Z,12.38
2023-04-09T10:28:02.448Z,28.40
2023-04-09T10:30:36.321Z,15.65
2023-04-09T10:33:18.406Z,14.80
2023-04-09T10:35:48.073Z,12.43
2023-04-09T10:38:15.609Z,12.38
2023-04-09T10:40:51.123Z,12.82
2023-04-09T10:43:25.938Z,13.93
2023-04-09T10:45:55.753Z,12.68
2023-04-09T10:48:26.151Z,14.10
2023-04-09T10:50:54.984Z,13.73
2023-04-09T10:53:27.769Z,11.30
2023-04-09T10:55:55.572Z,12.48
2023-04-09T10:58:22.419Z,12.52
2023-04-09T11:00:51.706Z,11.82
2023-04-09T11:03:24.348Z,11.93
2023-04-09T11:06:02.017Z,10.07
2023-04-09T11:08:30.726Z,11.43
2023-04-09T11:11:01.030Z,13.15
2023-04-09T11:13:29.953Z,14.80
2023-04-09T11:15:57.831Z,15.05
2023-04-09T11:18:26.840Z,12.20
2023-04-09T11:21:01.552Z,10.88
2023-04-09T11:23:28.914Z,11.75
2023-04-09T11:25:56.589Z,12.80
2023-04-09T11:28:24.433Z,11.13
2023-04-09T11:30:52.760Z,10.75
2023-04-09T11:33:20.743Z,12.02
2023-04-09T11:35:48.488Z,12.05
2023-04-09T11:41:00.734Z,15.00
2023-04-09T11:43:27.541Z,13.80
2023-04-09T11:45:56.515Z,11.55
2023-04-09T11:48:26.815Z,12.68
2023-04-09T11:50:53.920Z,9.45
2023-04-09T11:53:22.152Z,12.02
2023-04-09T11:55:52.994Z,14.52
2023-04-09T11:58:24.076Z,12.18
2023-04-09T12:00:59.704Z,12.77
2023-04-09T12:03:29.811Z,12.52
2023-04-09T12:06:00.230Z,11.57
2023-04-09T12:08:27.956Z,16.90
2023-04-09T12:10:56.775Z,12.05
2023-04-09T12:13:34.610Z,10.80
2023-04-09T12:16:03.453Z,11.50
2023-04-09T12:18:30.463Z,12.88
2023-04-09T12:20:57.290Z,10.50
2023-04-09T12:23:24.819Z,9.52
2023-04-09T12:25:51.747Z,9.70
2023-04-09T12:28:19.583Z,9.82
2023-04-09T12:30:47.355Z,10.02
2023-04-09T12:33:15.459Z,8.85
2023-04-09T12:35:42.378Z,9.27
2023-04-09T12:38:09.251Z,9.00
2023-04-09T12:40:37.125Z,8.98
2023-04-09T12:43:04.381Z,8.85
2023-04-09T12:45:33.056Z,9.48
2023-04-09T12:47:59.958Z,8.15
2023-04-09T12:50:26.903Z,8.23
2023-04-09T12:52:53.752Z,7.88
2023-04-09T12:55:20.622Z,7.35
2023-04-09T12:57:50.523Z,9.02
2023-04-09T13:00:17.465Z,8.65
2023-04-09T13:02:44.418Z,11.27
2023-04-09T13:05:12.632Z,10.15
2023-04-09T13:07:42.337Z,10.07
2023-04-09T13:10:10.168Z,8.60
2023-04-09T13:12:36.957Z,9.35
2023-04-09T13:15:04.074Z,7.93
2023-04-09T13:17:34.115Z,10.38
2023-04-09T13:20:02.545Z,10.75
2023-04-09T13:22:29.549Z,8.82
2023-04-09T13:24:57.798Z,9.57
2023-04-09T13:27:26.957Z,7.78
2023-04-09T13:29:53.940Z,9.90
2023-04-09T13:32:23.828Z,10.23
2023-04-09T13:34:51.353Z,8.57
2023-04-09T13:37:20.672Z,8.05
2023-04-09T13:39:47.472Z,8.10
2023-04-09T13:42:14.787Z,9.55
2023-04-09T13:44:44.778Z,8.00
2023-04-09T13:47:13.314Z,8.13
2023-04-09T13:49:41.448Z,8.35
2023-04-09T13:52:09.664Z,7.30
2023-04-09T13:54:36.943Z,7.68
2023-04-09T13:57:05.109Z,7.40
2023-04-09T13:59:34.534Z,9.18
2023-04-09T14:02:04.384Z,7.28
2023-04-09T14:04:32.319Z,9.13
2023-04-09T14:06:59.123Z,7.65
2023-04-09T14:09:26.070Z,7.85
2023-04-09T14:11:55.353Z,8.40
2023-04-09T14:14:22.319Z,8.05
2023-04-09T14:16:51.292Z,8.05
2023-04-09T14:19:19.069Z,8.30
2023-04-09T14:21:47.266Z,7.00
2023-04-09T14:24:16.565Z,8.07
2023-04-09T14:26:43.423Z,8.23
2023-04-09T14:29:11.062Z,8.77
2023-04-09T14:31:42.987Z,9.65
2023-04-09T14:34:10.445Z,7.97
2023-04-09T14:36:37.266Z,7.68
2023-04-09T14:39:04.100Z,7.30
2023-04-09T14:41:34.255Z,7.53
2023-04-09T14:44:01.198Z,7.38
2023-04-09T14:46:28.087Z,7.47
2023-04-09T14:48:55.394Z,7.90
2023-04-09T14:51:22.369Z,7.18
2023-04-09T14:53:52.849Z,7.05
2023-04-09T14:56:21.349Z,7.65
2023-04-09T14:58:48.206Z,7.05
2023-04-09T15:01:16.224Z,8.98
2023-04-09T15:03:45.022Z,8.63
2023-04-09T15:06:12.630Z,7.50
2023-04-09T15:08:39.734Z,9.70
2023-04-09T15:11:06.601Z,6.63
2023-04-09T15:13:34.201Z,7.35
2023-04-09T15:16:01.332Z,6.55
2023-04-09T15:18:28.238Z,6.95
2023-04-09T15:20:55.353Z,7.38
2023-04-09T15:23:22.156Z,7.15
2023-04-09T15:25:51.439Z,7.53
2023-04-09T15:28:21.196Z,7.18
2023-04-09T15:30:51.217Z,5.82
2023-04-09T15:33:18.038Z,7.05
2023-04-09T15:35:44.895Z,9.23
2023-04-09T15:38:11.986Z,6.72
2023-04-09T15:40:41.237Z,7.75
2023-04-09T15:43:09.400Z,6.88
2023-04-09T15:45:37.449Z,6.93
2023-04-09T15:48:05.470Z,7.85
2023-04-09T15:50:33.377Z,5.85
2023-04-09T15:53:00.208Z,9.10
2023-04-09T15:55:28.097Z,7.57
2023-04-09T15:57:55.764Z,8.82
2023-04-09T16:00:24.715Z,7.53
2023-04-09T16:02:53.155Z,7.05
2023-04-09T16:05:20.385Z,6.88
2023-04-09T16:07:51.865Z,8.55
2023-04-09T16:10:19.250Z,7.30
2023-04-09T16:12:46.504Z,6.70
2023-04-09T16:15:13.332Z,7.65
2023-04-09T16:17:44.759Z,10.10
2023-04-09T16:20:11.829Z,6.07
2023-04-09T16:22:38.650Z,8.05
2023-04-09T16:25:08.014Z,6.57
2023-04-09T16:27:35.875Z,7.40
2023-04-09T16:30:04.105Z,7.72
2023-04-09T16:32:33.223Z,7.35
2023-04-09T16:35:00.945Z,6.82
2023-04-09T16:37:29.699Z,6.45
2023-04-09T16:39:57.475Z,6.32
2023-04-09T16:42:24.418Z,8.25
2023-04-09T16:44:52.186Z,7.55
2023-04-09T16:47:19.013Z,6.63
2023-04-09T16:49:47.431Z,9.10
2023-04-09T16:52:14.364Z,5.43
2023-04-09T16:54:41.703Z,7.10
2023-04-09T16:57:08.592Z,6.25
2023-04-09T16:59:42.648Z,8.02
2023-04-09T17:04:40.062Z,9.10
2023-04-09T17:07:06.956Z,8.10
2023-04-09T17:09:33.798Z,9.60
2023-04-09T17:12:01.156Z,11.23
2023-04-09T17:14:30.574Z,8.50
2023-04-09T17:16:58.905Z,9.10
2023-04-09T17:19:25.744Z,10.43
2023-04-09T17:21:52.627Z,8.40
2023-04-09T17:24:19.828Z,8.60
2023-04-09T17:26:46.667Z,9.43
2023-04-09T17:29:13.881Z,8.27
2023-04-09T17:31:40.816Z,7.95
2023-04-09T17:34:08.707Z,10.27
2023-04-09T17:36:35.541Z,9.95
2023-04-09T17:39:02.968Z,9.43
2023-04-09T17:41:30.978Z,8.45
2023-04-09T17:44:04.118Z,8.55
2023-04-09T17:46:31.078Z,9.57
2023-04-09T17:48:58.032Z,7.70
2023-04-09T17:51:24.922Z,9.93
2023-04-09T17:53:55.482Z,7.88
2023-04-09T17:56:25.564Z,8.90
2023-04-09T17:58:53.666Z,7.82
2023-04-09T18:01:22.069Z,9.43
2023-04-09T18:03:51.556Z,7.60
2023-04-09T18:06:20.808Z,8.00
2023-04-09T18:08:49.215Z,7.28
2023-04-09T18:11:18.315Z,6.40
2023-04-09T18:13:45.405Z,8.25
2023-04-09T18:16:12.845Z,7.35
2023-04-09T18:18:40.762Z,8.32
2023-04-09T18:21:07.688Z,7.10
2023-04-09T18:23:34.677Z,7.32
2023-04-09T18:26:01.812Z,9.18
2023-04-09T18:28:28.614Z,7.55
2023-04-09T18:30:55.658Z,9.35
2023-04-09T18:33:25.876Z,7.82
2023-04-09T18:35:52.768Z,7.70
2023-04-09T18:38:21.230Z,8.48
2023-04-09T18:40:49.129Z,8.15
2023-04-09T18:43:16.221Z,8.70
2023-04-09T18:45:43.427Z,9.93
2023-04-09T18:48:10.338Z,8.07
2023-04-09T18:50:37.212Z,7.88
2023-04-09T18:53:05.674Z,7.72
2023-04-09T18:55:33.995Z,7.93
2023-04-09T18:58:00.859Z,7.30
2023-04-09T19:00:27.835Z,8.05
2023-04-09T19:02:54.900Z,8.88
2023-04-09T19:05:21.923Z,7.22
2023-04-09T19:07:49.114Z,7.78
2023-04-09T19:10:16.259Z,8.18
2023-04-09T19:12:51.002Z,8.77
2023-04-09T19:15:19.928Z,8.57
2023-04-09T19:17:47.440Z,8.80
2023-04-09T19:20:15.918Z,10.43
2023-04-09T19:22:48.488Z,9.88
2023-04-09T19:25:17.292Z,9.55
2023-04-09T19:27:47.908Z,8.80
2023-04-09T19:30:14.770Z,9.00
2023-04-09T19:32:41.902Z,9.50
2023-04-09T19:35:08.982Z,8.93
2023-04-09T19:37:35.862Z,9.32
2023-04-09T19:40:04.727Z,8.60
2023-04-09T19:42:35.001Z,10.52
2023-04-09T19:45:01.947Z,9.13
2023-04-09T19:47:29.210Z,10.43
2023-04-09T19:49:56.378Z,9.82
2023-04-09T19:52:23.202Z,9.30
2023-04-09T19:54:55.232Z,8.63
2023-04-09T19:57:22.766Z,10.55
2023-04-09T19:59:51.029Z,10.70
2023-04-09T20:02:18.853Z,10.07
2023-04-09T20:04:46.226Z,12.20
2023-04-09T20:07:13.701Z,9.73
2023-04-09T20:09:42.542Z,10.27
2023-04-09T20:12:10.171Z,11.98
2023-04-09T20:14:38.386Z,10.80
2023-04-09T20:17:08.337Z,11.15
2023-04-09T20:19:35.342Z,10.23
2023-04-09T20:22:03.927Z,10.50
2023-04-09T20:24:30.866Z,9.32
2023-04-09T20:26:59.649Z,11.30
2023-04-09T20:29:27.966Z,9.43
2023-04-09T20:31:54.911Z,10.75
2023-04-09T20:34:26.720Z,13.77
2023-04-09T20:36:54.427Z,11.80
2023-04-09T20:39:22.135Z,10.13
2023-04-09T20:41:50.493Z,11.63
2023-04-09T20:44:17.617Z,10.85
2023-04-09T20:46:44.556Z,12.02
2023-04-09T20:49:11.770Z,11.18
2023-04-09T20:51:40.852Z,11.15
2023-04-09T20:54:07.734Z,12.70
2023-04-09T20:56:34.708Z,10.93
2023-04-09T20:59:01.684Z,11.38
2023-04-09T21:01:28.758Z,10.68
2023-04-09T21:03:55.987Z,10.43
2023-04-09T21:06:22.861Z,10.65
2023-04-09T21:08:50.272Z,12.82
2023-04-09T21:11:17.395Z,12.68
2023-04-09T21:13:53.796Z,14.75
2023-04-09T21:16:21.290Z,12.43
2023-04-09T21:18:49.014Z,14.43
2023-04-09T21:21:16.156Z,12.27
2023-04-09T21:23:43.326Z,11.40
2023-04-09T21:26:11.587Z,11.90
2023-04-09T21:28:38.436Z,11.20
2023-04-09T21:31:06.799Z,11.55
2023-04-09T21:33:33.928Z,12.55
2023-04-09T21:38:42.736Z,11.38
2023-04-09T21:41:09.858Z,11.70
2023-04-09T21:43:38.545Z,15.25
2023-04-09T21:46:07.009Z,10.38
2023-04-09T21:48:34.236Z,10.30
2023-04-09T21:51:01.266Z,12.82
2023-04-09T21:53:28.346Z,11.65
2023-04-09T21:55:55.277Z,11.55
2023-04-09T21:58:23.558Z,11.52
2023-04-09T22:00:50.948Z,13.45
2023-04-09T22:03:18.062Z,11.65
2023-04-09T22:05:45.092Z,11.57
2023-04-09T22:08:13.768Z,12.00
2023-04-09T22:10:40.630Z,13.00
2023-04-09T22:13:07.890Z,12.02
2023-04-09T22:15:34.757Z,11.18
2023-04-09T22:18:01.768Z,10.50
2023-04-09T22:20:28.913Z,10.07
2023-04-09T22:22:55.818Z,10.90
2023-04-09T22:25:22.831Z,10.93
2023-04-09T22:27:54.559Z,11.00
2023-04-09T22:30:23.795Z,11.23
2023-04-09T22:32:51.726Z,11.77
2023-04-09T22:35:18.784Z,11.75
2023-04-09T22:37:47.271Z,11.27
2023-04-09T22:40:16.949Z,9.45
2023-04-09T22:42:47.100Z,10.80
2023-04-09T22:45:14.395Z,9.52
2023-04-09T22:47:41.307Z,10.82
2023-04-09T22:50:08.805Z,11.13
2023-04-09T22:52:35.613Z,11.45
2023-04-09T22:55:02.429Z,11.10
2023-04-09T22:57:30.675Z,10.48
2023-04-09T22:59:58.354Z,10.63
2023-04-09T23:02:26.811Z,11.85
2023-04-09T23:04:56.283Z,10.85
2023-04-09T23:07:24.255Z,12.68
2023-04-09T23:09:52.042Z,10.05
2023-04-09T23:12:18.882Z,10.75
2023-04-09T23:14:47.036Z,10.68
2023-04-09T23:17:15.845Z,13.00
2023-04-09T23:19:43.863Z,10.25
2023-04-09T23:22:10.866Z,11.18
2023-04-09T23:24:37.979Z,15.15
2023-04-09T23:27:04.767Z,11.00
2023-04-09T23:29:31.589Z,10.40
2023-04-09T23:31:59.363Z,11.07
2023-04-09T23:34:27.124Z,16.67
2023-04-09T23:36:54.077Z,12.82
2023-04-09T23:39:21.100Z,13.35
2023-04-09T23:41:48.073Z,15.35
2023-04-09T23:44:15.034Z,16.63
2023-04-09T23:46:42.574Z,15.23
2023-04-09T23:49:09.489Z,11.48
2023-04-09T23:51:37.298Z,9.88
2023-04-09T23:54:04.293Z,11.20
2023-04-09T23:56:32.290Z,11.23
2023-04-09T23:58:59.671Z,11.55
